Time;durP1;ratioP1;P1;durP2;ratioP2;P2;SDS_P1;SDS_P2;PMS_P1;PMS_P2;Temp;Humidity;BMP_temperature;BMP_pressure;BME280_temperature;BME280_humidity;BME280_pressure;Samples;Min_cycle;Max_cycle;Signal;HPM_P1;HPM_P2
2023/08/20 00:01:19;;;;;;;4.22;2.80;;;;;;;;;;2097320;28;20436;-78
2023/08/20 00:02:41;;;;;;;2.55;2.35;;;;;;;;;;2085194;28;20482;-78
2023/08/20 00:04:00;;;;;;;4.47;3.08;;;;;;;;;;2083248;28;20298;-78
2023/08/20 00:05:19;;;;;;;2.67;2.47;;;;;;;;;;2093791;28;20025;-80
2023/08/20 00:06:39;;;;;;;2.90;2.50;;;;;;;;;;2087595;28;20025;-78
2023/08/20 00:07:58;;;;;;;5.07;2.40;;;;;;;;;;2092024;28;20056;-78
2023/08/20 00:09:17;;;;;;;2.40;2.20;;;;;;;;;;2086169;28;20025;-79
2023/08/20 00:10:36;;;;;;;3.63;2.60;;;;;;;;;;2085294;28;20033;-79
2023/08/20 00:11:55;;;;;;;3.38;2.30;;;;;;;;;;2092222;28;20506;-78
2023/08/20 00:13:14;;;;;;;2.60;2.40;;;;;;;;;;2087188;28;20041;-79
2023/08/20 00:14:56;;;;;;;2.30;2.20;;;;;;;;;;2089531;28;20155;-78
2023/08/20 00:16:15;;;;;;;2.72;2.10;;;;;;;;;;2095260;28;20029;-78
2023/08/20 00:17:35;;;;;;;2.20;2.10;;;;;;;;;;2085061;28;20025;-78
2023/08/20 00:18:54;;;;;;;2.35;2.15;;;;;;;;;;2092061;28;20024;-78
2023/08/20 00:20:13;;;;;;;1.90;1.80;;;;;;;;;;2095458;28;20037;-78
2023/08/20 00:21:33;;;;;;;2.80;2.40;;;;;;;;;;2096440;28;20044;-78
2023/08/20 00:22:52;;;;;;;2.40;2.30;;;;;;;;;;2095209;28;21099;-78
2023/08/20 00:24:12;;;;;;;3.30;2.20;;;;;;;;;;2087213;28;20079;-78
2023/08/20 00:25:30;;;;;;;2.35;2.17;;;;;;;;;;2091893;28;20040;-79
2023/08/20 00:26:49;;;;;;;2.13;2.03;;;;;;;;;;2087682;28;20029;-78
2023/08/20 00:28:08;;;;;;;1.90;1.80;;;;;;;;;;2089458;28;20060;-79
2023/08/20 00:29:27;;;;;;;2.83;1.90;;;;;;;;;;2091525;28;20036;-78
2023/08/20 00:30:46;;;;;;;2.95;2.22;;;;;;;;;;2094116;28;20036;-79
2023/08/20 00:32:05;;;;;;;2.30;2.00;;;;;;;;;;2094509;28;20037;-78
2023/08/20 00:33:24;;;;;;;4.15;1.90;;;;;;;;;;2085837;28;20033;-79
2023/08/20 00:34:43;;;;;;;2.50;2.30;;;;;;;;;;2091635;28;20020;-78
2023/08/20 00:36:02;;;;;;;2.95;1.80;;;;;;;;;;2086575;28;20017;-78
2023/08/20 00:37:21;;;;;;;2.55;2.10;;;;;;;;;;2084486;28;20112;-78
2023/08/20 00:38:40;;;;;;;13.10;11.45;;;;;;;;;;2092994;28;20562;-78
2023/08/20 00:39:59;;;;;;;7.00;6.40;;;;;;;;;;2087163;28;20029;-78
2023/08/20 00:41:19;;;;;;;2.65;2.03;;;;;;;;;;2092228;28;20037;-78
2023/08/20 00:42:38;;;;;;;2.63;2.40;;;;;;;;;;2094296;28;20028;-78
2023/08/20 00:43:57;;;;;;;1.90;1.80;;;;;;;;;;2094645;28;20489;-78
2023/08/20 00:45:16;;;;;;;1.95;1.85;;;;;;;;;;2096189;28;20032;-78
2023/08/20 00:46:35;;;;;;;3.97;1.75;;;;;;;;;;2088150;28;20442;-79
2023/08/20 00:47:56;;;;;;;2.00;1.90;;;;;;;;;;2085361;28;20324;-77
2023/08/20 00:49:15;;;;;;;1.92;1.83;;;;;;;;;;2090283;28;21045;-79
2023/08/20 00:50:34;;;;;;;2.38;2.10;;;;;;;;;;2085841;28;20033;-77
2023/08/20 00:51:53;;;;;;;1.88;1.77;;;;;;;;;;2092452;28;20017;-78
2023/08/20 00:53:13;;;;;;;2.10;2.00;;;;;;;;;;2096013;28;20028;-77
2023/08/20 00:54:32;;;;;;;1.98;1.70;;;;;;;;;;2096857;28;20025;-77
2023/08/20 00:55:51;;;;;;;1.90;1.80;;;;;;;;;;2093659;28;20020;-77
2023/08/20 00:57:10;;;;;;;4.30;1.92;;;;;;;;;;2094877;28;20037;-79
2023/08/20 00:58:29;;;;;;;2.17;2.08;;;;;;;;;;2087250;28;20541;-78
2023/08/20 00:59:51;;;;;;;3.70;1.80;;;;;;;;;;2084341;28;20033;-78
2023/08/20 01:01:10;;;;;;;2.88;1.73;;;;;;;;;;2091981;28;20025;-79
2023/08/20 01:02:29;;;;;;;1.90;1.80;;;;;;;;;;2094033;28;20029;-78
2023/08/20 01:03:48;;;;;;;2.00;1.90;;;;;;;;;;2085066;28;20025;-78
2023/08/20 01:05:08;;;;;;;1.80;1.70;;;;;;;;;;2083364;28;20158;-78
2023/08/20 01:06:44;;;;;;;3.08;2.33;;;;;;;;;;2085149;28;20116;-77
2023/08/20 01:08:12;;;;;;;3.17;2.03;;;;;;;;;;2095682;28;20020;-77
2023/08/20 01:09:37;;;;;;;2.22;1.90;;;;;;;;;;2094625;28;20068;-77
2023/08/20 01:11:03;;;;;;;1.88;1.77;;;;;;;;;;2086870;28;20021;-77
2023/08/20 01:12:22;;;;;;;2.25;2.00;;;;;;;;;;2091100;28;20036;-79
2023/08/20 01:13:45;;;;;;;4.88;1.77;;;;;;;;;;2087937;28;20373;-77
2023/08/20 01:15:04;;;;;;;1.70;1.60;;;;;;;;;;2092836;28;20017;-78
2023/08/20 01:16:24;;;;;;;2.38;2.00;;;;;;;;;;2098999;28;20045;-77
2023/08/20 01:17:43;;;;;;;2.13;2.03;;;;;;;;;;2087789;28;20037;-77
2023/08/20 01:19:02;;;;;;;2.60;2.00;;;;;;;;;;2095421;28;20029;-77
2023/08/20 01:20:23;;;;;;;3.03;2.45;;;;;;;;;;2103172;28;20012;-77
2023/08/20 01:21:55;;;;;;;2.42;1.83;;;;;;;;;;2105520;28;20036;-77
2023/08/20 01:23:27;;;;;;;3.00;2.38;;;;;;;;;;2101997;28;20370;-78
2023/08/20 01:25:06;;;;;;;3.00;2.13;;;;;;;;;;2102774;28;20033;-77
2023/08/20 01:26:48;;;;;;;2.30;2.10;;;;;;;;;;2101857;28;20037;-78
2023/08/20 01:28:21;;;;;;;2.38;2.17;;;;;;;;;;2097274;28;20051;-78
2023/08/20 01:29:41;;;;;;;2.53;1.65;;;;;;;;;;2094292;28;20590;-78
2023/08/20 01:31:00;;;;;;;3.45;2.10;;;;;;;;;;2080506;28;20029;-78
2023/08/20 01:32:20;;;;;;;2.25;2.10;;;;;;;;;;2090729;28;20044;-78
2023/08/20 01:33:39;;;;;;;2.13;2.00;;;;;;;;;;2095924;28;20029;-78
2023/08/20 01:34:58;;;;;;;2.20;2.00;;;;;;;;;;2086095;28;20025;-79
2023/08/20 01:36:17;;;;;;;3.35;2.20;;;;;;;;;;2086200;28;20037;-78
2023/08/20 01:37:35;;;;;;;2.65;2.20;;;;;;;;;;2083861;28;20502;-79
2023/08/20 01:38:54;;;;;;;3.15;1.88;;;;;;;;;;2093170;28;20025;-78
2023/08/20 01:40:13;;;;;;;2.17;2.08;;;;;;;;;;2095934;28;20028;-79
2023/08/20 01:41:32;;;;;;;2.25;2.05;;;;;;;;;;2086715;28;20029;-79
2023/08/20 01:42:51;;;;;;;2.45;2.25;;;;;;;;;;2092269;28;20024;-78
2023/08/20 01:44:12;;;;;;;2.58;2.42;;;;;;;;;;2095992;28;20017;-78
2023/08/20 01:45:31;;;;;;;2.35;2.15;;;;;;;;;;2095514;28;20146;-78
2023/08/20 01:46:50;;;;;;;3.03;2.10;;;;;;;;;;2098006;28;20443;-79
2023/08/20 01:48:09;;;;;;;2.08;1.88;;;;;;;;;;2096734;28;20028;-78
2023/08/20 01:49:28;;;;;;;2.90;2.20;;;;;;;;;;2096646;28;20032;-78
2023/08/20 01:50:47;;;;;;;2.95;2.00;;;;;;;;;;2096165;28;20024;-79
2023/08/20 01:52:06;;;;;;;3.72;2.28;;;;;;;;;;2095737;28;20029;-78
2023/08/20 01:53:25;;;;;;;2.33;2.13;;;;;;;;;;2096409;28;20033;-78
2023/08/20 01:54:44;;;;;;;2.80;1.90;;;;;;;;;;2089922;28;20056;-79
2023/08/20 01:56:02;;;;;;;2.95;2.60;;;;;;;;;;2084978;28;20040;-78
2023/08/20 01:57:21;;;;;;;2.88;2.38;;;;;;;;;;2094730;28;20028;-79
2023/08/20 01:58:40;;;;;;;2.38;2.17;;;;;;;;;;2092543;28;20044;-78
2023/08/20 02:00:04;;;;;;;3.42;2.15;;;;;;;;;;2096952;28;20028;-79
2023/08/20 02:01:24;;;;;;;2.63;2.45;;;;;;;;;;2097806;28;20108;-78
2023/08/20 02:02:44;;;;;;;2.45;2.33;;;;;;;;;;2094661;28;20025;-78
2023/08/20 02:04:03;;;;;;;3.00;2.80;;;;;;;;;;2097847;28;20024;-77
2023/08/20 02:05:22;;;;;;;2.40;2.30;;;;;;;;;;2095250;28;20036;-76
2023/08/20 02:06:41;;;;;;;3.17;2.28;;;;;;;;;;2095426;28;20032;-78
2023/08/20 02:08:00;;;;;;;6.57;2.20;;;;;;;;;;2097337;28;20056;-78
2023/08/20 02:09:19;;;;;;;2.50;2.40;;;;;;;;;;2095347;28;20056;-79
2023/08/20 02:10:39;;;;;;;3.13;2.35;;;;;;;;;;2089966;28;21035;-78
2023/08/20 02:11:58;;;;;;;4.10;2.38;;;;;;;;;;2083004;28;20041;-79
2023/08/20 02:13:17;;;;;;;2.28;2.10;;;;;;;;;;2086559;28;20116;-79
2023/08/20 02:14:36;;;;;;;2.60;2.40;;;;;;;;;;2094778;28;20398;-78
2023/08/20 02:15:59;;;;;;;2.15;2.05;;;;;;;;;;2087192;28;20033;-78
2023/08/20 02:17:18;;;;;;;3.10;2.55;;;;;;;;;;2089496;28;20530;-78
2023/08/20 02:18:37;;;;;;;2.53;2.35;;;;;;;;;;2094398;28;20036;-78
2023/08/20 02:19:56;;;;;;;1.90;1.80;;;;;;;;;;2096300;28;20016;-79
2023/08/20 02:21:15;;;;;;;2.90;2.60;;;;;;;;;;2087167;28;20021;-77
2023/08/20 02:22:34;;;;;;;2.58;2.38;;;;;;;;;;2084415;28;20041;-79
2023/08/20 02:23:53;;;;;;;2.40;2.20;;;;;;;;;;2084959;28;20017;-78
2023/08/20 02:25:12;;;;;;;3.60;2.50;;;;;;;;;;2086982;28;20017;-78
2023/08/20 02:26:31;;;;;;;3.28;2.40;;;;;;;;;;2084883;28;20111;-78
2023/08/20 02:27:51;;;;;;;4.18;2.30;;;;;;;;;;2088304;28;20033;-78
2023/08/20 02:29:10;;;;;;;2.33;2.22;;;;;;;;;;2098390;28;20020;-78
2023/08/20 02:30:29;;;;;;;4.90;2.45;;;;;;;;;;2098011;28;20385;-78
2023/08/20 02:31:48;;;;;;;2.40;2.30;;;;;;;;;;2095238;28;20033;-78
2023/08/20 02:33:09;;;;;;;2.22;2.10;;;;;;;;;;2096508;28;20028;-78
2023/08/20 02:34:28;;;;;;;2.28;2.03;;;;;;;;;;2089914;28;20025;-77
2023/08/20 02:35:47;;;;;;;2.45;2.25;;;;;;;;;;2094844;28;20025;-76
2023/08/20 02:37:06;;;;;;;3.17;2.30;;;;;;;;;;2088380;28;20034;-77
2023/08/20 02:38:25;;;;;;;2.80;2.60;;;;;;;;;;2085170;28;20029;-77
2023/08/20 02:39:44;;;;;;;3.95;2.50;;;;;;;;;;2085145;28;20028;-78
2023/08/20 02:41:03;;;;;;;3.88;2.70;;;;;;;;;;2088127;28;20029;-78
2023/08/20 02:42:22;;;;;;;3.33;3.03;;;;;;;;;;2087837;28;20915;-77
2023/08/20 02:43:41;;;;;;;2.63;2.42;;;;;;;;;;2089732;28;20501;-78
2023/08/20 02:45:00;;;;;;;2.08;1.98;;;;;;;;;;2088188;28;20037;-77
2023/08/20 02:46:19;;;;;;;2.83;2.30;;;;;;;;;;2089985;28;20489;-78
2023/08/20 02:47:38;;;;;;;3.95;2.40;;;;;;;;;;2087695;28;20076;-78
2023/08/20 02:48:56;;;;;;;2.50;2.30;;;;;;;;;;2089999;28;20033;-78
2023/08/20 02:50:19;;;;;;;2.70;2.30;;;;;;;;;;2085304;28;20123;-77
2023/08/20 02:51:38;;;;;;;2.63;2.42;;;;;;;;;;2089618;28;20061;-77
2023/08/20 02:52:57;;;;;;;2.72;2.45;;;;;;;;;;2085233;28;20021;-78
2023/08/20 02:54:15;;;;;;;2.80;2.50;;;;;;;;;;2086581;28;20116;-78
2023/08/20 02:55:35;;;;;;;2.53;2.33;;;;;;;;;;2087650;28;20029;-77
2023/08/20 02:56:54;;;;;;;2.30;2.20;;;;;;;;;;2093528;28;20025;-77
2023/08/20 02:58:13;;;;;;;5.38;2.70;;;;;;;;;;2098372;28;20029;-76
2023/08/20 02:59:34;;;;;;;4.25;2.65;;;;;;;;;;2086907;28;20040;-76
2023/08/20 03:00:54;;;;;;;2.85;2.10;;;;;;;;;;2093092;28;21140;-77
2023/08/20 03:02:13;;;;;;;5.82;2.33;;;;;;;;;;2095534;28;20032;-77
2023/08/20 03:03:32;;;;;;;2.70;2.53;;;;;;;;;;2095847;28;20111;-79
2023/08/20 03:04:51;;;;;;;2.50;2.40;;;;;;;;;;2096150;28;20021;-78
2023/08/20 03:06:10;;;;;;;2.60;2.40;;;;;;;;;;2086452;28;20033;-79
2023/08/20 03:07:29;;;;;;;2.50;2.30;;;;;;;;;;2085772;28;20045;-78
2023/08/20 03:08:48;;;;;;;2.70;2.50;;;;;;;;;;2084589;28;20033;-78
2023/08/20 03:10:07;;;;;;;2.95;2.47;;;;;;;;;;2086516;28;20135;-78
2023/08/20 03:11:26;;;;;;;3.30;2.45;;;;;;;;;;2091396;28;20069;-78
2023/08/20 03:12:45;;;;;;;2.30;2.10;;;;;;;;;;2085023;28;20641;-78
2023/08/20 03:14:04;;;;;;;2.20;2.10;;;;;;;;;;2091763;28;20032;-78
2023/08/20 03:15:23;;;;;;;2.58;2.28;;;;;;;;;;2093648;28;21652;-78
2023/08/20 03:16:42;;;;;;;2.75;2.17;;;;;;;;;;2094885;28;20033;-77
2023/08/20 03:18:01;;;;;;;1.92;1.70;;;;;;;;;;2086842;28;20317;-78
2023/08/20 03:19:20;;;;;;;2.10;2.00;;;;;;;;;;2089379;28;20059;-78
2023/08/20 03:20:39;;;;;;;2.20;1.98;;;;;;;;;;2090930;28;20170;-78
2023/08/20 03:21:57;;;;;;;2.78;2.05;;;;;;;;;;2097853;28;20056;-78
2023/08/20 03:23:16;;;;;;;2.42;2.10;;;;;;;;;;2097401;28;20497;-78
2023/08/20 03:24:35;;;;;;;2.08;1.80;;;;;;;;;;2097953;28;20029;-78
2023/08/20 03:25:57;;;;;;;4.40;1.75;;;;;;;;;;2087066;28;20068;-78
2023/08/20 03:27:16;;;;;;;2.17;1.98;;;;;;;;;;2093851;28;20036;-76
2023/08/20 03:28:35;;;;;;;2.00;1.90;;;;;;;;;;2088044;28;20036;-78
2023/08/20 03:29:54;;;;;;;2.25;1.80;;;;;;;;;;2092840;28;20025;-79
2023/08/20 03:31:13;;;;;;;1.73;1.63;;;;;;;;;;2096068;28;20033;-77
2023/08/20 03:32:32;;;;;;;3.90;1.92;;;;;;;;;;2097702;28;20040;-77
2023/08/20 03:33:51;;;;;;;1.77;1.67;;;;;;;;;;2094498;28;20036;-77
2023/08/20 03:35:10;;;;;;;1.73;1.63;;;;;;;;;;2088006;28;20029;-77
2023/08/20 03:36:29;;;;;;;1.70;1.60;;;;;;;;;;2093843;28;20107;-78
2023/08/20 03:37:48;;;;;;;1.80;1.70;;;;;;;;;;2096827;28;20020;-79
2023/08/20 03:39:07;;;;;;;1.52;1.42;;;;;;;;;;2088273;28;20055;-77
2023/08/20 03:40:27;;;;;;;2.28;1.77;;;;;;;;;;2091707;28;20025;-77
2023/08/20 03:41:47;;;;;;;1.80;1.70;;;;;;;;;;2094890;28;20029;-78
2023/08/20 03:43:06;;;;;;;1.70;1.42;;;;;;;;;;2095104;28;20037;-77
2023/08/20 03:44:25;;;;;;;1.80;1.70;;;;;;;;;;2096287;28;20028;-78
2023/08/20 03:45:44;;;;;;;1.67;1.48;;;;;;;;;;2094757;28;20036;-78
2023/08/20 03:47:03;;;;;;;1.60;1.52;;;;;;;;;;2094419;28;20527;-77
2023/08/20 03:48:22;;;;;;;1.73;1.58;;;;;;;;;;2095577;28;20032;-78
2023/08/20 03:49:41;;;;;;;3.72;1.65;;;;;;;;;;2091293;28;20062;-78
2023/08/20 03:51:00;;;;;;;1.80;1.70;;;;;;;;;;2097885;28;20032;-77
2023/08/20 03:52:19;;;;;;;2.30;1.70;;;;;;;;;;2096926;28;20037;-78
2023/08/20 03:53:38;;;;;;;1.50;1.40;;;;;;;;;;2096017;28;20025;-77
2023/08/20 03:54:57;;;;;;;1.92;1.77;;;;;;;;;;2096501;28;20024;-77
2023/08/20 03:56:16;;;;;;;2.25;1.60;;;;;;;;;;2087975;28;20029;-77
2023/08/20 03:57:35;;;;;;;1.98;1.70;;;;;;;;;;2087734;28;20116;-77
2023/08/20 03:58:54;;;;;;;2.33;1.55;;;;;;;;;;2092959;28;20032;-79
2023/08/20 04:00:14;;;;;;;2.65;1.80;;;;;;;;;;2086782;28;20036;-78
2023/08/20 04:01:35;;;;;;;2.03;1.92;;;;;;;;;;2093479;28;20025;-78
2023/08/20 04:02:54;;;;;;;2.13;1.58;;;;;;;;;;2087455;28;20029;-78
2023/08/20 04:04:13;;;;;;;3.28;1.95;;;;;;;;;;2090977;28;20687;-79
2023/08/20 04:05:36;;;;;;;3.67;2.25;;;;;;;;;;2095344;28;20044;-79
2023/08/20 04:06:55;;;;;;;2.38;2.00;;;;;;;;;;2086938;28;20053;-79
2023/08/20 04:08:15;;;;;;;2.25;2.00;;;;;;;;;;2083231;28;20502;-78
2023/08/20 04:09:36;;;;;;;1.90;1.80;;;;;;;;;;2093512;28;20111;-78
2023/08/20 04:10:55;;;;;;;2.30;1.45;;;;;;;;;;2088403;28;20865;-78
2023/08/20 04:12:14;;;;;;;1.63;1.52;;;;;;;;;;2087677;28;20033;-79
2023/08/20 04:13:33;;;;;;;2.42;1.70;;;;;;;;;;2088994;28;20036;-77
2023/08/20 04:14:52;;;;;;;2.03;1.85;;;;;;;;;;2091940;28;20422;-79
2023/08/20 04:16:11;;;;;;;2.10;2.00;;;;;;;;;;2088772;28;20057;-79
2023/08/20 04:17:30;;;;;;;1.92;1.73;;;;;;;;;;2093043;28;20033;-79
2023/08/20 04:18:49;;;;;;;1.73;1.63;;;;;;;;;;2089650;28;20017;-77
2023/08/20 04:20:09;;;;;;;3.53;1.83;;;;;;;;;;2093696;28;20028;-78
2023/08/20 04:21:28;;;;;;;3.35;2.13;;;;;;;;;;2095651;28;20025;-79
2023/08/20 04:22:47;;;;;;;3.55;1.83;;;;;;;;;;2095725;28;20032;-79
2023/08/20 04:24:07;;;;;;;2.03;1.92;;;;;;;;;;2088066;28;20080;-78
2023/08/20 04:25:26;;;;;;;2.15;1.83;;;;;;;;;;2091446;28;20020;-78
2023/08/20 04:26:45;;;;;;;1.80;1.70;;;;;;;;;;2094724;28;20013;-78
2023/08/20 04:28:04;;;;;;;1.92;1.83;;;;;;;;;;2093992;28;20048;-77
2023/08/20 04:29:23;;;;;;;2.40;1.73;;;;;;;;;;2095424;28;20415;-78
2023/08/20 04:30:43;;;;;;;1.90;1.80;;;;;;;;;;2094265;28;20025;-77
2023/08/20 04:32:02;;;;;;;1.20;1.10;;;;;;;;;;2086513;28;20099;-78
2023/08/20 04:33:21;;;;;;;1.42;1.33;;;;;;;;;;2085606;28;20493;-77
2023/08/20 04:34:40;;;;;;;3.60;1.48;;;;;;;;;;2093690;28;20579;-77
2023/08/20 04:35:59;;;;;;;1.30;1.13;;;;;;;;;;2086950;28;20441;-77
2023/08/20 04:37:19;;;;;;;1.67;1.58;;;;;;;;;;2092575;28;20489;-79
2023/08/20 04:38:38;;;;;;;2.20;1.40;;;;;;;;;;2088027;28;20033;-79
2023/08/20 04:39:57;;;;;;;1.50;1.40;;;;;;;;;;2092715;28;20478;-77
2023/08/20 04:41:16;;;;;;;2.88;1.48;;;;;;;;;;2095572;28;20032;-78
2023/08/20 04:42:35;;;;;;;1.48;1.38;;;;;;;;;;2095034;28;20389;-78
2023/08/20 04:43:54;;;;;;;2.53;1.20;;;;;;;;;;2096685;28;20040;-78
2023/08/20 04:45:13;;;;;;;2.00;1.27;;;;;;;;;;2092681;28;20036;-78
2023/08/20 04:46:32;;;;;;;1.70;1.60;;;;;;;;;;2093918;28;20158;-79
2023/08/20 04:47:51;;;;;;;1.10;1.00;;;;;;;;;;2087685;28;20033;-79
2023/08/20 04:49:09;;;;;;;1.38;1.30;;;;;;;;;;2086832;28;20537;-77
2023/08/20 04:50:28;;;;;;;1.40;1.30;;;;;;;;;;2084503;28;20517;-78
2023/08/20 04:51:47;;;;;;;1.40;1.30;;;;;;;;;;2092843;28;20111;-78
2023/08/20 04:53:06;;;;;;;1.17;1.10;;;;;;;;;;2088825;28;20029;-78
2023/08/20 04:54:26;;;;;;;1.45;1.35;;;;;;;;;;2092510;28;20036;-78
2023/08/20 04:55:45;;;;;;;1.27;1.23;;;;;;;;;;2087561;28;20518;-78
2023/08/20 04:57:04;;;;;;;1.90;1.75;;;;;;;;;;2083648;28;20605;-78
2023/08/20 04:58:23;;;;;;;1.80;1.15;;;;;;;;;;2091937;28;20017;-78
2023/08/20 04:59:45;;;;;;;1.40;1.30;;;;;;;;;;2094350;28;20021;-78
2023/08/20 05:01:05;;;;;;;2.55;1.55;;;;;;;;;;2093357;28;20573;-79
2023/08/20 05:02:24;;;;;;;2.10;1.48;;;;;;;;;;2086869;28;20025;-78
2023/08/20 05:03:43;;;;;;;2.53;1.45;;;;;;;;;;2083199;28;20029;-78
2023/08/20 05:05:02;;;;;;;1.13;1.13;;;;;;;;;;2089133;28;20067;-79
2023/08/20 05:06:22;;;;;;;1.40;1.30;;;;;;;;;;2097213;28;20048;-77
2023/08/20 05:07:43;;;;;;;2.45;1.38;;;;;;;;;;2095832;28;20082;-77
2023/08/20 05:09:03;;;;;;;1.10;1.10;;;;;;;;;;2098131;28;20029;-78
2023/08/20 05:10:22;;;;;;;1.25;1.15;;;;;;;;;;2097992;28;20032;-79
2023/08/20 05:11:41;;;;;;;1.17;1.08;;;;;;;;;;2096807;28;20022;-79
2023/08/20 05:13:02;;;;;;;0.90;0.90;;;;;;;;;;2101733;28;20017;-80
2023/08/20 05:14:21;;;;;;;1.85;1.20;;;;;;;;;;2105326;28;20024;-79
2023/08/20 05:15:40;;;;;;;1.27;1.17;;;;;;;;;;2105529;28;20025;-78
2023/08/20 05:16:59;;;;;;;1.38;1.20;;;;;;;;;;2106240;28;20029;-78
2023/08/20 05:18:18;;;;;;;1.00;1.00;;;;;;;;;;2105726;28;20017;-78
2023/08/20 05:19:37;;;;;;;1.23;1.13;;;;;;;;;;2102007;28;20024;-77
2023/08/20 05:20:56;;;;;;;2.35;1.27;;;;;;;;;;2100745;28;20024;-77
2023/08/20 05:22:15;;;;;;;1.27;1.17;;;;;;;;;;2095891;28;20456;-79
2023/08/20 05:23:35;;;;;;;0.95;0.95;;;;;;;;;;2097862;28;20021;-78
2023/08/20 05:24:54;;;;;;;1.70;1.40;;;;;;;;;;2096699;28;20037;-78
2023/08/20 05:26:13;;;;;;;2.80;0.95;;;;;;;;;;2094946;28;20025;-79
2023/08/20 05:27:32;;;;;;;1.15;1.05;;;;;;;;;;2084947;28;20075;-78
2023/08/20 05:28:52;;;;;;;1.23;1.20;;;;;;;;;;2091244;28;20600;-78
2023/08/20 05:30:11;;;;;;;1.13;1.02;;;;;;;;;;2086839;28;20032;-78
2023/08/20 05:31:31;;;;;;;1.27;1.20;;;;;;;;;;2084277;28;20022;-78
2023/08/20 05:32:50;;;;;;;1.10;1.10;;;;;;;;;;2094102;28;20024;-79
2023/08/20 05:34:09;;;;;;;0.98;0.98;;;;;;;;;;2096256;28;20029;-79
2023/08/20 05:35:28;;;;;;;3.03;1.20;;;;;;;;;;2096372;28;20033;-78
2023/08/20 05:36:47;;;;;;;1.08;1.08;;;;;;;;;;2094788;28;20052;-79
2023/08/20 05:38:06;;;;;;;1.58;1.00;;;;;;;;;;2097496;28;20025;-79
2023/08/20 05:39:25;;;;;;;1.10;0.98;;;;;;;;;;2097047;28;20108;-78
2023/08/20 05:40:44;;;;;;;1.15;1.15;;;;;;;;;;2096563;28;20486;-78
2023/08/20 05:42:03;;;;;;;1.13;1.02;;;;;;;;;;2088744;28;20083;-78
2023/08/20 05:43:22;;;;;;;1.10;1.00;;;;;;;;;;2093382;28;20029;-78
2023/08/20 05:44:42;;;;;;;0.90;0.90;;;;;;;;;;2086956;28;20022;-77
2023/08/20 05:46:01;;;;;;;1.20;1.10;;;;;;;;;;2092893;28;20028;-78
2023/08/20 05:47:20;;;;;;;2.83;1.10;;;;;;;;;;2087279;28;20029;-78
2023/08/20 05:48:39;;;;;;;0.93;0.93;;;;;;;;;;2091927;28;20533;-78
2023/08/20 05:49:58;;;;;;;1.80;0.90;;;;;;;;;;2096596;28;20036;-77
2023/08/20 05:51:17;;;;;;;1.30;1.20;;;;;;;;;;2094414;28;20037;-78
2023/08/20 05:52:36;;;;;;;1.10;0.95;;;;;;;;;;2086929;28;20041;-79
2023/08/20 05:53:55;;;;;;;0.80;0.80;;;;;;;;;;2083607;28;20024;-79
2023/08/20 05:55:15;;;;;;;1.60;0.93;;;;;;;;;;2091846;28;20024;-79
2023/08/20 05:56:34;;;;;;;1.15;0.88;;;;;;;;;;2094022;28;20037;-79
2023/08/20 05:57:54;;;;;;;1.13;1.05;;;;;;;;;;2097042;28;20029;-79
2023/08/20 05:59:12;;;;;;;1.33;1.13;;;;;;;;;;2087042;28;20140;-79
2023/08/20 06:00:31;;;;;;;0.80;0.75;;;;;;;;;;2093422;28;20025;-79
2023/08/20 06:01:50;;;;;;;2.33;1.25;;;;;;;;;;2082255;28;20140;-78
2023/08/20 06:03:09;;;;;;;0.82;0.82;;;;;;;;;;2090909;28;20115;-80
2023/08/20 06:04:29;;;;;;;0.98;0.90;;;;;;;;;;2088125;28;20029;-78
2023/08/20 06:05:48;;;;;;;2.25;1.00;;;;;;;;;;2090378;28;20115;-78
2023/08/20 06:07:07;;;;;;;1.95;1.02;;;;;;;;;;2095731;28;20028;-77
2023/08/20 06:08:26;;;;;;;1.90;1.02;;;;;;;;;;2087647;28;20029;-77
2023/08/20 06:09:45;;;;;;;1.27;1.17;;;;;;;;;;2082103;28;20029;-78
2023/08/20 06:11:04;;;;;;;1.30;1.20;;;;;;;;;;2082176;28;20028;-76
2023/08/20 06:12:24;;;;;;;1.55;1.00;;;;;;;;;;2079878;28;20040;-76
2023/08/20 06:13:43;;;;;;;1.15;0.90;;;;;;;;;;2088366;28;20056;-78
2023/08/20 06:15:02;;;;;;;1.38;1.10;;;;;;;;;;2092746;28;20040;-76
2023/08/20 06:16:21;;;;;;;1.08;1.08;;;;;;;;;;2092706;28;20649;-77
2023/08/20 06:17:40;;;;;;;1.42;1.10;;;;;;;;;;2096468;28;20033;-76
2023/08/20 06:18:58;;;;;;;1.25;1.20;;;;;;;;;;2094777;28;20103;-76
2023/08/20 06:20:18;;;;;;;1.00;0.90;;;;;;;;;;2093344;28;20025;-77
2023/08/20 06:21:37;;;;;;;1.63;1.15;;;;;;;;;;2084329;28;20029;-76
2023/08/20 06:22:56;;;;;;;0.98;0.98;;;;;;;;;;2081400;28;20025;-78
2023/08/20 06:24:15;;;;;;;1.05;1.05;;;;;;;;;;2090729;28;20099;-78
2023/08/20 06:25:33;;;;;;;1.20;1.10;;;;;;;;;;2095567;28;20032;-77
2023/08/20 06:26:52;;;;;;;1.23;1.00;;;;;;;;;;2086012;28;20017;-77
2023/08/20 06:28:12;;;;;;;1.27;1.00;;;;;;;;;;2090205;28;20111;-78
2023/08/20 06:29:31;;;;;;;0.75;0.75;;;;;;;;;;2086194;28;20025;-77
2023/08/20 06:30:50;;;;;;;0.80;0.80;;;;;;;;;;2092213;28;20040;-79
2023/08/20 06:32:09;;;;;;;0.82;0.82;;;;;;;;;;2083986;28;20052;-78
2023/08/20 06:33:29;;;;;;;1.48;1.10;;;;;;;;;;2094767;28;20041;-80
2023/08/20 06:34:48;;;;;;;1.95;0.95;;;;;;;;;;2095763;28;20029;-85
2023/08/20 06:36:07;;;;;;;1.40;0.93;;;;;;;;;;2087718;28;20037;-78
2023/08/20 06:37:26;;;;;;;1.02;1.02;;;;;;;;;;2084422;28;20021;-78
2023/08/20 06:38:45;;;;;;;1.45;1.20;;;;;;;;;;2085082;28;20025;-76
2023/08/20 06:40:04;;;;;;;1.52;1.10;;;;;;;;;;2092441;28;20127;-81
2023/08/20 06:41:23;;;;;;;2.22;1.20;;;;;;;;;;2093934;28;20029;-79
2023/08/20 06:42:42;;;;;;;0.80;0.80;;;;;;;;;;2098378;28;20040;-81
2023/08/20 06:44:01;;;;;;;1.60;1.42;;;;;;;;;;2087766;28;20410;-78
2023/08/20 06:45:20;;;;;;;1.00;1.00;;;;;;;;;;2078797;28;20041;-78
2023/08/20 06:46:40;;;;;;;2.58;1.00;;;;;;;;;;2093499;28;20037;-79
2023/08/20 06:47:59;;;;;;;1.23;1.00;;;;;;;;;;2096442;28;20028;-78
2023/08/20 06:49:18;;;;;;;0.98;0.98;;;;;;;;;;2087268;28;20659;-78
2023/08/20 06:50:37;;;;;;;1.35;0.90;;;;;;;;;;2092067;28;20026;-78
2023/08/20 06:51:56;;;;;;;1.15;1.05;;;;;;;;;;2086469;28;20104;-79
2023/08/20 06:53:15;;;;;;;2.67;1.00;;;;;;;;;;2091798;28;20036;-78
2023/08/20 06:54:34;;;;;;;3.25;1.02;;;;;;;;;;2093908;28;20046;-79
2023/08/20 06:55:53;;;;;;;1.35;1.23;;;;;;;;;;2094600;28;20029;-78
2023/08/20 06:57:12;;;;;;;2.83;1.23;;;;;;;;;;2095691;28;20025;-77
2023/08/20 06:58:31;;;;;;;0.90;0.85;;;;;;;;;;2085969;28;20049;-78
2023/08/20 06:59:50;;;;;;;1.20;1.10;;;;;;;;;;2092442;28;20017;-78
2023/08/20 07:01:09;;;;;;;1.05;1.02;;;;;;;;;;2094420;28;20477;-78
2023/08/20 07:02:28;;;;;;;0.93;0.93;;;;;;;;;;2093957;28;20492;-77
2023/08/20 07:03:48;;;;;;;4.13;1.00;;;;;;;;;;2095716;28;20072;-79
2023/08/20 07:05:09;;;;;;;0.80;0.80;;;;;;;;;;2094190;28;20105;-77
2023/08/20 07:06:28;;;;;;;1.20;1.10;;;;;;;;;;2086822;28;20450;-78
2023/08/20 07:07:47;;;;;;;1.38;0.95;;;;;;;;;;2092198;28;20675;-76
2023/08/20 07:09:06;;;;;;;0.80;0.75;;;;;;;;;;2087001;28;20029;-79
2023/08/20 07:10:26;;;;;;;1.10;1.00;;;;;;;;;;2092824;28;20033;-79
2023/08/20 07:11:45;;;;;;;2.08;0.90;;;;;;;;;;2095277;28;20924;-77
2023/08/20 07:13:04;;;;;;;0.90;0.90;;;;;;;;;;2093869;28;20410;-76
2023/08/20 07:14:23;;;;;;;2.15;1.02;;;;;;;;;;2084081;28;20506;-77
2023/08/20 07:15:42;;;;;;;1.00;1.00;;;;;;;;;;2082194;28;20156;-77
2023/08/20 07:17:02;;;;;;;0.85;0.85;;;;;;;;;;2084933;28;20108;-78
2023/08/20 07:18:21;;;;;;;1.90;1.00;;;;;;;;;;2092480;28;20521;-77
2023/08/20 07:19:40;;;;;;;1.00;0.80;;;;;;;;;;2097992;28;20032;-77
2023/08/20 07:20:59;;;;;;;0.88;0.85;;;;;;;;;;2085135;28;20041;-80
2023/08/20 07:22:18;;;;;;;1.35;0.93;;;;;;;;;;2085286;28;20116;-77
2023/08/20 07:23:38;;;;;;;1.40;0.85;;;;;;;;;;2091626;28;20032;-77
2023/08/20 07:24:57;;;;;;;0.80;0.80;;;;;;;;;;2095564;28;20033;-77
2023/08/20 07:26:16;;;;;;;1.08;1.00;;;;;;;;;;2084744;28;20534;-78
2023/08/20 07:27:36;;;;;;;1.38;1.00;;;;;;;;;;2092911;28;20036;-78
2023/08/20 07:28:58;;;;;;;1.00;0.90;;;;;;;;;;2087132;28;20029;-77
2023/08/20 07:30:17;;;;;;;1.50;0.88;;;;;;;;;;2093736;28;20041;-78
2023/08/20 07:31:36;;;;;;;1.60;1.50;;;;;;;;;;2086246;28;20111;-77
2023/08/20 07:32:55;;;;;;;2.08;0.88;;;;;;;;;;2093543;28;20036;-77
2023/08/20 07:34:14;;;;;;;2.15;1.08;;;;;;;;;;2096451;28;20024;-78
2023/08/20 07:35:33;;;;;;;1.17;1.08;;;;;;;;;;2088837;28;20029;-77
2023/08/20 07:36:52;;;;;;;2.78;1.05;;;;;;;;;;2092931;28;20024;-78
2023/08/20 07:38:11;;;;;;;1.48;1.20;;;;;;;;;;2088868;28;20025;-78
2023/08/20 07:39:30;;;;;;;1.83;0.90;;;;;;;;;;2091287;28;20024;-77
2023/08/20 07:40:49;;;;;;;1.20;1.10;;;;;;;;;;2097455;28;20024;-78
2023/08/20 07:42:08;;;;;;;1.00;1.00;;;;;;;;;;2091230;28;20029;-79
2023/08/20 07:43:27;;;;;;;1.10;1.00;;;;;;;;;;2086258;28;20104;-78
2023/08/20 07:44:46;;;;;;;1.17;0.90;;;;;;;;;;2087314;28;21454;-79
2023/08/20 07:46:05;;;;;;;1.00;0.90;;;;;;;;;;2088144;28;20029;-76
2023/08/20 07:47:24;;;;;;;1.15;1.10;;;;;;;;;;2094105;28;20060;-77
2023/08/20 07:48:43;;;;;;;1.17;1.08;;;;;;;;;;2087922;28;20029;-78
2023/08/20 07:50:03;;;;;;;1.00;0.88;;;;;;;;;;2092726;28;20040;-78
2023/08/20 07:51:22;;;;;;;1.13;1.10;;;;;;;;;;2086885;28;20036;-77
2023/08/20 07:52:40;;;;;;;2.67;1.40;;;;;;;;;;2092553;28;20381;-78
2023/08/20 07:54:00;;;;;;;3.35;1.30;;;;;;;;;;2095467;28;20028;-79
2023/08/20 07:55:19;;;;;;;1.13;1.08;;;;;;;;;;2092387;28;20064;-79
2023/08/20 07:56:38;;;;;;;2.45;1.30;;;;;;;;;;2094228;28;20060;-78
2023/08/20 07:57:57;;;;;;;1.45;1.35;;;;;;;;;;2086795;28;20028;-77